sensor_id;sensor_type;location;lat;lon;timestamp;P1;durP1;ratioP1;P2;durP2;ratioP2
9737;SDS011;4908;47.446;13.900;2024-03-08T00:01:01;8.77;;;7.70;;
9737;SDS011;4908;47.446;13.900;2024-03-08T00:03:28;9.23;;;7.60;;
9737;SDS011;4908;47.446;13.900;2024-03-08T00:05:56;7.87;;;7.07;;
9737;SDS011;4908;47.446;13.900;2024-03-08T00:08:23;9.10;;;6.80;;
9737;SDS011;4908;47.446;13.900;2024-03-08T00:10:50;9.77;;;6.87;;
9737;SDS011;4908;47.446;13.900;2024-03-08T00:13:18;8.97;;;7.60;;
9737;SDS011;4908;47.446;13.900;2024-03-08T00:15:45;8.10;;;7.07;;
9737;SDS011;4908;47.446;13.900;2024-03-08T00:18:13;9.67;;;7.43;;
9737;SDS011;4908;47.446;13.900;2024-03-08T00:20:40;9.07;;;7.30;;
9737;SDS011;4908;47.446;13.900;2024-03-08T00:23:07;9.17;;;7.83;;
9737;SDS011;4908;47.446;13.900;2024-03-08T00:25:36;8.93;;;7.30;;
9737;SDS011;4908;47.446;13.900;2024-03-08T00:28:04;7.87;;;7.07;;
9737;SDS011;4908;47.446;13.900;2024-03-08T00:30:31;6.80;;;6.10;;
9737;SDS011;4908;47.446;13.900;2024-03-08T00:32:59;7.50;;;5.80;;
9737;SDS011;4908;47.446;13.900;2024-03-08T00:35:27;7.27;;;6.57;;
9737;SDS011;4908;47.446;13.900;2024-03-08T00:37:55;8.53;;;5.77;;
9737;SDS011;4908;47.446;13.900;2024-03-08T00:40:22;7.10;;;6.13;;
9737;SDS011;4908;47.446;13.900;2024-03-08T00:42:50;5.20;;;4.70;;
9737;SDS011;4908;47.446;13.900;2024-03-08T00:45:18;5.83;;;5.23;;
9737;SDS011;4908;47.446;13.900;2024-03-08T00:47:45;6.40;;;5.77;;
9737;SDS011;4908;47.446;13.900;2024-03-08T00:50:12;6.57;;;5.93;;
9737;SDS011;4908;47.446;13.900;2024-03-08T00:52:41;7.47;;;5.93;;
9737;SDS011;4908;47.446;13.900;2024-03-08T00:55:08;7.27;;;5.33;;
9737;SDS011;4908;47.446;13.900;2024-03-08T00:57:37;7.23;;;5.77;;
9737;SDS011;4908;47.446;13.900;2024-03-08T01:00:05;6.33;;;5.73;;
9737;SDS011;4908;47.446;13.900;2024-03-08T01:02:37;6.73;;;6.03;;
9737;SDS011;4908;47.446;13.900;2024-03-08T01:05:04;6.40;;;5.80;;
9737;SDS011;4908;47.446;13.900;2024-03-08T01:07:32;6.70;;;6.03;;
9737;SDS011;4908;47.446;13.900;2024-03-08T01:10:01;8.20;;;5.87;;
9737;SDS011;4908;47.446;13.900;2024-03-08T01:12:29;5.80;;;5.20;;
9737;SDS011;4908;47.446;13.900;2024-03-08T01:14:56;5.67;;;5.07;;
9737;SDS011;4908;47.446;13.900;2024-03-08T01:17:24;6.07;;;5.47;;
9737;SDS011;4908;47.446;13.900;2024-03-08T01:19:52;5.87;;;5.30;;
9737;SDS011;4908;47.446;13.900;2024-03-08T01:22:19;7.03;;;6.33;;
9737;SDS011;4908;47.446;13.900;2024-03-08T01:24:47;7.73;;;6.47;;
9737;SDS011;4908;47.446;13.900;2024-03-08T01:27:16;9.97;;;7.87;;
9737;SDS011;4908;47.446;13.900;2024-03-08T01:29:43;10.10;;;7.77;;
9737;SDS011;4908;47.446;13.900;2024-03-08T01:32:11;12.83;;;9.57;;
9737;SDS011;4908;47.446;13.900;2024-03-08T01:34:38;10.63;;;8.67;;
9737;SDS011;4908;47.446;13.900;2024-03-08T01:37:05;7.50;;;6.73;;
9737;SDS011;4908;47.446;13.900;2024-03-08T01:39:33;9.40;;;6.40;;
9737;SDS011;4908;47.446;13.900;2024-03-08T01:42:00;7.00;;;5.47;;
9737;SDS011;4908;47.446;13.900;2024-03-08T01:44:29;5.70;;;5.20;;
9737;SDS011;4908;47.446;13.900;2024-03-08T01:46:56;5.90;;;5.30;;
9737;SDS011;4908;47.446;13.900;2024-03-08T01:49:24;5.30;;;4.80;;
9737;SDS011;4908;47.446;13.900;2024-03-08T01:51:53;6.20;;;5.53;;
9737;SDS011;4908;47.446;13.900;2024-03-08T01:54:22;5.23;;;4.83;;
9737;SDS011;4908;47.446;13.900;2024-03-08T01:56:50;5.27;;;4.77;;
9737;SDS011;4908;47.446;13.900;2024-03-08T01:59:18;5.63;;;5.10;;
9737;SDS011;4908;47.446;13.900;2024-03-08T02:01:47;6.03;;;4.97;;
9737;SDS011;4908;47.446;13.900;2024-03-08T02:04:15;6.57;;;5.97;;
9737;SDS011;4908;47.446;13.900;2024-03-08T02:06:42;6.37;;;5.67;;
9737;SDS011;4908;47.446;13.900;2024-03-08T02:09:10;5.67;;;5.17;;
9737;SDS011;4908;47.446;13.900;2024-03-08T02:11:37;7.57;;;5.23;;
9737;SDS011;4908;47.446;13.900;2024-03-08T02:14:07;6.60;;;6.00;;
9737;SDS011;4908;47.446;13.900;2024-03-08T02:16:36;8.80;;;7.80;;
9737;SDS011;4908;47.446;13.900;2024-03-08T02:19:06;6.60;;;6.00;;
9737;SDS011;4908;47.446;13.900;2024-03-08T02:21:36;6.73;;;6.10;;
9737;SDS011;4908;47.446;13.900;2024-03-08T02:24:04;7.50;;;6.30;;
9737;SDS011;4908;47.446;13.900;2024-03-08T02:26:32;6.60;;;5.67;;
9737;SDS011;4908;47.446;13.900;2024-03-08T02:28:59;6.97;;;6.20;;
9737;SDS011;4908;47.446;13.900;2024-03-08T02:31:27;8.13;;;6.70;;
9737;SDS011;4908;47.446;13.900;2024-03-08T02:33:54;6.93;;;6.23;;
9737;SDS011;4908;47.446;13.900;2024-03-08T02:36:22;5.97;;;5.37;;
9737;SDS011;4908;47.446;13.900;2024-03-08T02:38:50;6.63;;;5.60;;
9737;SDS011;4908;47.446;13.900;2024-03-08T02:41:17;5.73;;;5.23;;
9737;SDS011;4908;47.446;13.900;2024-03-08T02:43:45;5.93;;;5.27;;
9737;SDS011;4908;47.446;13.900;2024-03-08T02:46:12;6.53;;;5.60;;
9737;SDS011;4908;47.446;13.900;2024-03-08T02:48:40;5.20;;;4.70;;
9737;SDS011;4908;47.446;13.900;2024-03-08T02:51:07;5.83;;;5.23;;
9737;SDS011;4908;47.446;13.900;2024-03-08T02:53:36;5.37;;;4.63;;
9737;SDS011;4908;47.446;13.900;2024-03-08T02:56:04;5.80;;;4.90;;
9737;SDS011;4908;47.446;13.900;2024-03-08T02:58:34;5.90;;;5.33;;
9737;SDS011;4908;47.446;13.900;2024-03-08T03:01:01;5.83;;;5.23;;
9737;SDS011;4908;47.446;13.900;2024-03-08T03:03:29;5.93;;;5.27;;
9737;SDS011;4908;47.446;13.900;2024-03-08T03:05:57;5.90;;;5.30;;
9737;SDS011;4908;47.446;13.900;2024-03-08T03:08:24;5.57;;;5.07;;
9737;SDS011;4908;47.446;13.900;2024-03-08T03:10:52;5.33;;;4.83;;
9737;SDS011;4908;47.446;13.900;2024-03-08T03:13:22;5.80;;;5.30;;
9737;SDS011;4908;47.446;13.900;2024-03-08T03:15:49;5.27;;;4.77;;
9737;SDS011;4908;47.446;13.900;2024-03-08T03:18:17;5.87;;;5.27;;
9737;SDS011;4908;47.446;13.900;2024-03-08T03:20:46;5.63;;;4.97;;
9737;SDS011;4908;47.446;13.900;2024-03-08T03:23:14;6.50;;;4.90;;
9737;SDS011;4908;47.446;13.900;2024-03-08T03:25:45;6.33;;;5.30;;
9737;SDS011;4908;47.446;13.900;2024-03-08T03:28:12;6.97;;;6.27;;
9737;SDS011;4908;47.446;13.900;2024-03-08T03:30:45;6.37;;;5.27;;
9737;SDS011;4908;47.446;13.900;2024-03-08T03:33:12;6.97;;;5.40;;
9737;SDS011;4908;47.446;13.900;2024-03-08T03:35:40;7.13;;;5.57;;
9737;SDS011;4908;47.446;13.900;2024-03-08T03:38:08;8.60;;;7.00;;
9737;SDS011;4908;47.446;13.900;2024-03-08T03:40:36;5.87;;;5.27;;
9737;SDS011;4908;47.446;13.900;2024-03-08T03:43:03;6.77;;;5.50;;
9737;SDS011;4908;47.446;13.900;2024-03-08T03:45:31;6.53;;;5.63;;
9737;SDS011;4908;47.446;13.900;2024-03-08T03:48:02;6.10;;;5.40;;
9737;SDS011;4908;47.446;13.900;2024-03-08T03:50:29;6.37;;;5.60;;
9737;SDS011;4908;47.446;13.900;2024-03-08T03:52:59;6.33;;;5.53;;
9737;SDS011;4908;47.446;13.900;2024-03-08T03:55:27;5.70;;;4.73;;
9737;SDS011;4908;47.446;13.900;2024-03-08T03:57:54;5.73;;;5.07;;
9737;SDS011;4908;47.446;13.900;2024-03-08T04:00:24;6.30;;;4.63;;
9737;SDS011;4908;47.446;13.900;2024-03-08T04:02:52;5.80;;;5.20;;
9737;SDS011;4908;47.446;13.900;2024-03-08T04:05:21;5.67;;;5.13;;
9737;SDS011;4908;47.446;13.900;2024-03-08T04:07:48;7.70;;;5.80;;
9737;SDS011;4908;47.446;13.900;2024-03-08T04:10:15;6.10;;;5.50;;
9737;SDS011;4908;47.446;13.900;2024-03-08T04:12:43;5.77;;;5.20;;
9737;SDS011;4908;47.446;13.900;2024-03-08T04:15:10;6.53;;;5.53;;
9737;SDS011;4908;47.446;13.900;2024-03-08T04:17:37;5.23;;;4.73;;
9737;SDS011;4908;47.446;13.900;2024-03-08T04:20:05;6.90;;;4.90;;
9737;SDS011;4908;47.446;13.900;2024-03-08T04:22:36;5.67;;;4.50;;
9737;SDS011;4908;47.446;13.900;2024-03-08T04:25:04;7.23;;;4.90;;
9737;SDS011;4908;47.446;13.900;2024-03-08T04:27:32;5.07;;;4.57;;
9737;SDS011;4908;47.446;13.900;2024-03-08T04:30:00;4.70;;;4.30;;
9737;SDS011;4908;47.446;13.900;2024-03-08T04:32:27;5.13;;;4.63;;
9737;SDS011;4908;47.446;13.900;2024-03-08T04:34:55;7.30;;;5.10;;
9737;SDS011;4908;47.446;13.900;2024-03-08T04:37:22;6.27;;;4.97;;
9737;SDS011;4908;47.446;13.900;2024-03-08T04:39:51;6.17;;;5.57;;
9737;SDS011;4908;47.446;13.900;2024-03-08T04:42:19;7.30;;;5.73;;
9737;SDS011;4908;47.446;13.900;2024-03-08T04:44:46;6.43;;;5.80;;
9737;SDS011;4908;47.446;13.900;2024-03-08T04:47:13;7.23;;;5.80;;
9737;SDS011;4908;47.446;13.900;2024-03-08T04:49:43;7.53;;;5.93;;
9737;SDS011;4908;47.446;13.900;2024-03-08T04:52:10;7.47;;;6.20;;
9737;SDS011;4908;47.446;13.900;2024-03-08T04:54:37;6.07;;;5.43;;
9737;SDS011;4908;47.446;13.900;2024-03-08T04:57:06;6.20;;;5.60;;
9737;SDS011;4908;47.446;13.900;2024-03-08T04:59:33;9.53;;;5.57;;
9737;SDS011;4908;47.446;13.900;2024-03-08T05:02:01;6.70;;;5.40;;
9737;SDS011;4908;47.446;13.900;2024-03-08T05:04:28;5.60;;;5.10;;
9737;SDS011;4908;47.446;13.900;2024-03-08T05:06:55;5.63;;;5.03;;
9737;SDS011;4908;47.446;13.900;2024-03-08T05:09:22;6.93;;;5.20;;
9737;SDS011;4908;47.446;13.900;2024-03-08T05:11:50;6.37;;;5.67;;
9737;SDS011;4908;47.446;13.900;2024-03-08T05:14:18;12.73;;;6.20;;
9737;SDS011;4908;47.446;13.900;2024-03-08T05:16:46;7.67;;;5.43;;
9737;SDS011;4908;47.446;13.900;2024-03-08T05:19:14;7.80;;;5.70;;
9737;SDS011;4908;47.446;13.900;2024-03-08T05:21:43;7.07;;;4.83;;
9737;SDS011;4908;47.446;13.900;2024-03-08T05:24:10;6.90;;;5.33;;
9737;SDS011;4908;47.446;13.900;2024-03-08T05:26:38;5.27;;;4.73;;
9737;SDS011;4908;47.446;13.900;2024-03-08T05:29:05;5.53;;;4.90;;
9737;SDS011;4908;47.446;13.900;2024-03-08T05:31:36;5.80;;;5.30;;
9737;SDS011;4908;47.446;13.900;2024-03-08T05:34:09;11.57;;;5.23;;
9737;SDS011;4908;47.446;13.900;2024-03-08T05:36:36;7.90;;;5.00;;
9737;SDS011;4908;47.446;13.900;2024-03-08T05:39:03;6.37;;;5.63;;
9737;SDS011;4908;47.446;13.900;2024-03-08T05:41:31;5.43;;;4.93;;
9737;SDS011;4908;47.446;13.900;2024-03-08T05:43:58;5.90;;;5.37;;
9737;SDS011;4908;47.446;13.900;2024-03-08T05:46:26;7.77;;;5.50;;
9737;SDS011;4908;47.446;13.900;2024-03-08T05:48:54;6.07;;;5.00;;
9737;SDS011;4908;47.446;13.900;2024-03-08T05:51:23;7.10;;;5.83;;
9737;SDS011;4908;47.446;13.900;2024-03-08T05:53:51;6.53;;;5.83;;
9737;SDS011;4908;47.446;13.900;2024-03-08T05:56:18;6.00;;;5.23;;
9737;SDS011;4908;47.446;13.900;2024-03-08T05:58:45;8.60;;;5.33;;
9737;SDS011;4908;47.446;13.900;2024-03-08T06:01:15;9.50;;;5.47;;
9737;SDS011;4908;47.446;13.900;2024-03-08T06:03:42;14.83;;;7.97;;
9737;SDS011;4908;47.446;13.900;2024-03-08T06:06:12;15.17;;;11.53;;
9737;SDS011;4908;47.446;13.900;2024-03-08T06:08:39;15.13;;;9.53;;
9737;SDS011;4908;47.446;13.900;2024-03-08T06:11:08;13.53;;;9.07;;
9737;SDS011;4908;47.446;13.900;2024-03-08T06:13:35;9.13;;;6.73;;
9737;SDS011;4908;47.446;13.900;2024-03-08T06:16:02;8.90;;;7.00;;
9737;SDS011;4908;47.446;13.900;2024-03-08T06:18:29;9.90;;;7.77;;
9737;SDS011;4908;47.446;13.900;2024-03-08T06:20:56;16.63;;;10.33;;
9737;SDS011;4908;47.446;13.900;2024-03-08T06:23:25;16.90;;;10.57;;
9737;SDS011;4908;47.446;13.900;2024-03-08T06:25:53;16.87;;;10.73;;
9737;SDS011;4908;47.446;13.900;2024-03-08T06:28:20;18.13;;;10.13;;
9737;SDS011;4908;47.446;13.900;2024-03-08T06:30:47;11.60;;;9.30;;
9737;SDS011;4908;47.446;13.900;2024-03-08T06:33:15;24.67;;;11.23;;
9737;SDS011;4908;47.446;13.900;2024-03-08T06:35:43;17.77;;;12.67;;
9737;SDS011;4908;47.446;13.900;2024-03-08T06:38:10;19.60;;;14.50;;
9737;SDS011;4908;47.446;13.900;2024-03-08T06:40:39;22.57;;;15.33;;
9737;SDS011;4908;47.446;13.900;2024-03-08T06:43:06;21.87;;;14.70;;
9737;SDS011;4908;47.446;13.900;2024-03-08T06:45:33;19.90;;;13.07;;
9737;SDS011;4908;47.446;13.900;2024-03-08T06:48:02;9.30;;;8.30;;
9737;SDS011;4908;47.446;13.900;2024-03-08T06:50:34;10.60;;;8.23;;
9737;SDS011;4908;47.446;13.900;2024-03-08T06:53:02;9.13;;;7.83;;
9737;SDS011;4908;47.446;13.900;2024-03-08T06:55:29;10.37;;;8.27;;
9737;SDS011;4908;47.446;13.900;2024-03-08T06:57:57;9.33;;;7.37;;
9737;SDS011;4908;47.446;13.900;2024-03-08T07:00:24;8.20;;;6.70;;
9737;SDS011;4908;47.446;13.900;2024-03-08T07:02:54;7.43;;;6.33;;
9737;SDS011;4908;47.446;13.900;2024-03-08T07:05:21;8.03;;;7.23;;
9737;SDS011;4908;47.446;13.900;2024-03-08T07:07:48;7.73;;;6.30;;
9737;SDS011;4908;47.446;13.900;2024-03-08T07:10:16;7.60;;;6.50;;
9737;SDS011;4908;47.446;13.900;2024-03-08T07:12:44;8.07;;;7.10;;
9737;SDS011;4908;47.446;13.900;2024-03-08T07:15:13;7.60;;;6.70;;
9737;SDS011;4908;47.446;13.900;2024-03-08T07:17:40;8.33;;;6.40;;
9737;SDS011;4908;47.446;13.900;2024-03-08T07:20:10;7.30;;;6.10;;
9737;SDS011;4908;47.446;13.900;2024-03-08T07:22:39;9.07;;;7.27;;
9737;SDS011;4908;47.446;13.900;2024-03-08T07:25:06;9.97;;;7.63;;
9737;SDS011;4908;47.446;13.900;2024-03-08T07:27:45;8.70;;;7.70;;
9737;SDS011;4908;47.446;13.900;2024-03-08T07:30:14;12.50;;;8.90;;
9737;SDS011;4908;47.446;13.900;2024-03-08T07:33:04;12.20;;;9.10;;
9737;SDS011;4908;47.446;13.900;2024-03-08T07:35:32;8.43;;;7.53;;
9737;SDS011;4908;47.446;13.900;2024-03-08T07:38:02;8.53;;;7.73;;
9737;SDS011;4908;47.446;13.900;2024-03-08T07:40:30;10.57;;;7.40;;
9737;SDS011;4908;47.446;13.900;2024-03-08T07:42:58;8.03;;;7.03;;
9737;SDS011;4908;47.446;13.900;2024-03-08T07:45:26;8.73;;;6.67;;
9737;SDS011;4908;47.446;13.900;2024-03-08T07:47:53;6.60;;;5.90;;
9737;SDS011;4908;47.446;13.900;2024-03-08T07:50:21;6.83;;;5.83;;
9737;SDS011;4908;47.446;13.900;2024-03-08T07:52:48;5.73;;;5.13;;
9737;SDS011;4908;47.446;13.900;2024-03-08T07:55:15;6.53;;;5.50;;
9737;SDS011;4908;47.446;13.900;2024-03-08T07:57:42;6.17;;;5.50;;
9737;SDS011;4908;47.446;13.900;2024-03-08T08:00:09;7.03;;;6.00;;
9737;SDS011;4908;47.446;13.900;2024-03-08T08:02:44;6.80;;;6.20;;
9737;SDS011;4908;47.446;13.900;2024-03-08T08:05:11;6.00;;;5.40;;
9737;SDS011;4908;47.446;13.900;2024-03-08T08:07:39;6.67;;;5.97;;
9737;SDS011;4908;47.446;13.900;2024-03-08T08:10:09;6.07;;;5.47;;
9737;SDS011;4908;47.446;13.900;2024-03-08T08:12:42;7.63;;;5.83;;
9737;SDS011;4908;47.446;13.900;2024-03-08T08:15:09;6.53;;;6.00;;
9737;SDS011;4908;47.446;13.900;2024-03-08T08:17:36;6.50;;;5.70;;
9737;SDS011;4908;47.446;13.900;2024-03-08T08:20:05;5.97;;;5.37;;
9737;SDS011;4908;47.446;13.900;2024-03-08T08:22:33;6.40;;;5.50;;
9737;SDS011;4908;47.446;13.900;2024-03-08T08:25:00;10.63;;;5.40;;
9737;SDS011;4908;47.446;13.900;2024-03-08T08:27:28;5.77;;;4.93;;
9737;SDS011;4908;47.446;13.900;2024-03-08T08:29:55;5.43;;;4.93;;
9737;SDS011;4908;47.446;13.900;2024-03-08T08:32:22;5.97;;;5.37;;
9737;SDS011;4908;47.446;13.900;2024-03-08T08:34:49;5.50;;;5.00;;
9737;SDS011;4908;47.446;13.900;2024-03-08T08:37:18;5.77;;;5.30;;
9737;SDS011;4908;47.446;13.900;2024-03-08T08:39:45;10.10;;;5.23;;
9737;SDS011;4908;47.446;13.900;2024-03-08T08:42:13;5.10;;;4.50;;
9737;SDS011;4908;47.446;13.900;2024-03-08T08:44:40;5.23;;;4.80;;
9737;SDS011;4908;47.446;13.900;2024-03-08T08:47:07;5.33;;;4.83;;
9737;SDS011;4908;47.446;13.900;2024-03-08T08:49:34;6.30;;;5.30;;
9737;SDS011;4908;47.446;13.900;2024-03-08T08:52:01;5.00;;;4.60;;
9737;SDS011;4908;47.446;13.900;2024-03-08T08:54:30;5.37;;;4.87;;
9737;SDS011;4908;47.446;13.900;2024-03-08T08:56:57;5.20;;;4.20;;
9737;SDS011;4908;47.446;13.900;2024-03-08T08:59:24;6.03;;;5.43;;
9737;SDS011;4908;47.446;13.900;2024-03-08T09:01:51;5.37;;;4.90;;
9737;SDS011;4908;47.446;13.900;2024-03-08T09:04:19;5.43;;;4.93;;
9737;SDS011;4908;47.446;13.900;2024-03-08T09:06:48;5.50;;;4.97;;
9737;SDS011;4908;47.446;13.900;2024-03-08T09:09:15;5.00;;;4.60;;
9737;SDS011;4908;47.446;13.900;2024-03-08T09:11:43;6.77;;;5.07;;
9737;SDS011;4908;47.446;13.900;2024-03-08T09:14:11;5.00;;;4.60;;
9737;SDS011;4908;47.446;13.900;2024-03-08T09:16:39;5.23;;;4.83;;
9737;SDS011;4908;47.446;13.900;2024-03-08T09:19:06;5.67;;;5.10;;
9737;SDS011;4908;47.446;13.900;2024-03-08T09:21:36;4.83;;;4.50;;
9737;SDS011;4908;47.446;13.900;2024-03-08T09:24:04;5.17;;;4.77;;
9737;SDS011;4908;47.446;13.900;2024-03-08T09:26:32;5.50;;;5.00;;
9737;SDS011;4908;47.446;13.900;2024-03-08T09:29:01;5.50;;;5.00;;
9737;SDS011;4908;47.446;13.900;2024-03-08T09:31:28;5.53;;;4.83;;
9737;SDS011;4908;47.446;13.900;2024-03-08T09:33:55;9.07;;;5.03;;
9737;SDS011;4908;47.446;13.900;2024-03-08T09:36:22;7.10;;;4.87;;
9737;SDS011;4908;47.446;13.900;2024-03-08T09:38:50;7.07;;;5.00;;
9737;SDS011;4908;47.446;13.900;2024-03-08T09:41:18;5.03;;;4.63;;
9737;SDS011;4908;47.446;13.900;2024-03-08T09:43:45;5.20;;;4.70;;
9737;SDS011;4908;47.446;13.900;2024-03-08T09:46:14;4.93;;;4.53;;
9737;SDS011;4908;47.446;13.900;2024-03-08T09:48:42;22.87;;;13.27;;
9737;SDS011;4908;47.446;13.900;2024-03-08T09:51:09;5.83;;;5.23;;
9737;SDS011;4908;47.446;13.900;2024-03-08T09:53:39;10.67;;;7.90;;
9737;SDS011;4908;47.446;13.900;2024-03-08T09:56:07;7.43;;;6.50;;
9737;SDS011;4908;47.446;13.900;2024-03-08T09:58:34;6.60;;;5.17;;
9737;SDS011;4908;47.446;13.900;2024-03-08T10:01:20;6.07;;;4.90;;
9737;SDS011;4908;47.446;13.900;2024-03-08T10:03:48;6.50;;;4.70;;
9737;SDS011;4908;47.446;13.900;2024-03-08T10:06:15;5.80;;;4.87;;
9737;SDS011;4908;47.446;13.900;2024-03-08T10:08:42;5.33;;;4.83;;
9737;SDS011;4908;47.446;13.900;2024-03-08T10:11:10;5.20;;;4.73;;
9737;SDS011;4908;47.446;13.900;2024-03-08T10:13:38;4.97;;;4.47;;
9737;SDS011;4908;47.446;13.900;2024-03-08T10:16:06;4.57;;;4.20;;
9737;SDS011;4908;47.446;13.900;2024-03-08T10:18:35;4.53;;;4.13;;
9737;SDS011;4908;47.446;13.900;2024-03-08T10:21:03;5.17;;;4.63;;
9737;SDS011;4908;47.446;13.900;2024-03-08T10:23:31;7.70;;;4.87;;
9737;SDS011;4908;47.446;13.900;2024-03-08T10:26:09;5.43;;;4.53;;
9737;SDS011;4908;47.446;13.900;2024-03-08T10:28:38;5.30;;;4.63;;
9737;SDS011;4908;47.446;13.900;2024-03-08T10:31:05;4.10;;;3.73;;
9737;SDS011;4908;47.446;13.900;2024-03-08T10:33:32;4.03;;;3.73;;
9737;SDS011;4908;47.446;13.900;2024-03-08T10:36:01;4.23;;;3.57;;
9737;SDS011;4908;47.446;13.900;2024-03-08T10:38:28;9.07;;;3.60;;
9737;SDS011;4908;47.446;13.900;2024-03-08T10:40:58;4.57;;;4.00;;
9737;SDS011;4908;47.446;13.900;2024-03-08T10:43:26;2.80;;;2.60;;
9737;SDS011;4908;47.446;13.900;2024-03-08T10:46:05;3.40;;;3.10;;
9737;SDS011;4908;47.446;13.900;2024-03-08T10:48:43;3.73;;;2.77;;
9737;SDS011;4908;47.446;13.900;2024-03-08T10:51:12;2.40;;;2.17;;
9737;SDS011;4908;47.446;13.900;2024-03-08T10:53:42;2.47;;;2.27;;
9737;SDS011;4908;47.446;13.900;2024-03-08T10:56:10;2.13;;;2.03;;
9737;SDS011;4908;47.446;13.900;2024-03-08T10:58:39;2.37;;;2.13;;
9737;SDS011;4908;47.446;13.900;2024-03-08T11:01:09;2.77;;;2.40;;
9737;SDS011;4908;47.446;13.900;2024-03-08T11:03:46;3.27;;;2.27;;
9737;SDS011;4908;47.446;13.900;2024-03-08T11:06:22;2.13;;;2.03;;
9737;SDS011;4908;47.446;13.900;2024-03-08T11:08:51;2.60;;;2.40;;
9737;SDS011;4908;47.446;13.900;2024-03-08T11:11:24;2.23;;;2.07;;
9737;SDS011;4908;47.446;13.900;2024-03-08T11:13:56;2.40;;;2.30;;
9737;SDS011;4908;47.446;13.900;2024-03-08T11:16:37;3.43;;;2.17;;
9737;SDS011;4908;47.446;13.900;2024-03-08T11:22:04;2.53;;;1.80;;
9737;SDS011;4908;47.446;13.900;2024-03-08T11:24:38;6.20;;;1.80;;
9737;SDS011;4908;47.446;13.900;2024-03-08T11:27:07;1.60;;;1.50;;
9737;SDS011;4908;47.446;13.900;2024-03-08T11:29:37;1.47;;;1.40;;
9737;SDS011;4908;47.446;13.900;2024-03-08T11:32:09;6.27;;;2.00;;
9737;SDS011;4908;47.446;13.900;2024-03-08T11:34:39;2.47;;;1.77;;
9737;SDS011;4908;47.446;13.900;2024-03-08T11:37:13;1.63;;;1.50;;
9737;SDS011;4908;47.446;13.900;2024-03-08T11:39:46;4.57;;;2.03;;
9737;SDS011;4908;47.446;13.900;2024-03-08T11:42:14;1.97;;;1.80;;
9737;SDS011;4908;47.446;13.900;2024-03-08T11:44:41;2.00;;;1.90;;
9737;SDS011;4908;47.446;13.900;2024-03-08T11:47:09;1.10;;;1.10;;
9737;SDS011;4908;47.446;13.900;2024-03-08T11:49:36;1.37;;;1.13;;
9737;SDS011;4908;47.446;13.900;2024-03-08T11:52:04;1.60;;;1.50;;
9737;SDS011;4908;47.446;13.900;2024-03-08T11:54:32;1.70;;;1.60;;
9737;SDS011;4908;47.446;13.900;2024-03-08T11:57:01;1.40;;;1.33;;
9737;SDS011;4908;47.446;13.900;2024-03-08T11:59:28;2.20;;;2.10;;
9737;SDS011;4908;47.446;13.900;2024-03-08T12:02:02;1.80;;;1.70;;
9737;SDS011;4908;47.446;13.900;2024-03-08T12:04:30;1.50;;;1.40;;
9737;SDS011;4908;47.446;13.900;2024-03-08T12:06:59;2.80;;;2.00;;
9737;SDS011;4908;47.446;13.900;2024-03-08T12:09:35;1.43;;;1.30;;
9737;SDS011;4908;47.446;13.900;2024-03-08T12:12:02;1.80;;;1.20;;
9737;SDS011;4908;47.446;13.900;2024-03-08T12:14:31;1.27;;;1.27;;
9737;SDS011;4908;47.446;13.900;2024-03-08T12:16:58;2.27;;;1.40;;
9737;SDS011;4908;47.446;13.900;2024-03-08T12:19:26;2.10;;;1.50;;
9737;SDS011;4908;47.446;13.900;2024-03-08T12:21:53;1.20;;;1.20;;
9737;SDS011;4908;47.446;13.900;2024-03-08T12:24:21;1.60;;;1.50;;
9737;SDS011;4908;47.446;13.900;2024-03-08T12:26:50;1.10;;;1.03;;
9737;SDS011;4908;47.446;13.900;2024-03-08T12:29:18;1.20;;;1.20;;
9737;SDS011;4908;47.446;13.900;2024-03-08T12:31:47;1.10;;;1.10;;
9737;SDS011;4908;47.446;13.900;2024-03-08T12:34:17;1.10;;;1.10;;
9737;SDS011;4908;47.446;13.900;2024-03-08T12:36:47;1.10;;;1.10;;
9737;SDS011;4908;47.446;13.900;2024-03-08T12:39:16;1.37;;;1.37;;
9737;SDS011;4908;47.446;13.900;2024-03-08T12:41:47;1.50;;;1.40;;
9737;SDS011;4908;47.446;13.900;2024-03-08T12:44:18;1.57;;;1.10;;
9737;SDS011;4908;47.446;13.900;2024-03-08T12:46:46;1.40;;;0.97;;
9737;SDS011;4908;47.446;13.900;2024-03-08T12:49:14;1.20;;;1.20;;
9737;SDS011;4908;47.446;13.900;2024-03-08T12:51:43;1.20;;;1.20;;
9737;SDS011;4908;47.446;13.900;2024-03-08T12:54:10;1.30;;;1.30;;
9737;SDS011;4908;47.446;13.900;2024-03-08T12:56:37;1.20;;;1.20;;
9737;SDS011;4908;47.446;13.900;2024-03-08T12:59:05;1.20;;;1.20;;
9737;SDS011;4908;47.446;13.900;2024-03-08T13:01:35;1.10;;;1.10;;
9737;SDS011;4908;47.446;13.900;2024-03-08T13:04:03;1.40;;;1.03;;
9737;SDS011;4908;47.446;13.900;2024-03-08T13:06:31;1.07;;;1.07;;
9737;SDS011;4908;47.446;13.900;2024-03-08T13:08:59;1.83;;;1.00;;
9737;SDS011;4908;47.446;13.900;2024-03-08T13:11:30;1.57;;;1.10;;
9737;SDS011;4908;47.446;13.900;2024-03-08T13:14:01;0.90;;;0.90;;
9737;SDS011;4908;47.446;13.900;2024-03-08T13:16:30;1.00;;;1.00;;
9737;SDS011;4908;47.446;13.900;2024-03-08T13:19:01;1.07;;;1.07;;
9737;SDS011;4908;47.446;13.900;2024-03-08T13:21:29;1.43;;;1.20;;
9737;SDS011;4908;47.446;13.900;2024-03-08T13:23:57;1.48;;;1.10;;
9737;SDS011;4908;47.446;13.900;2024-03-08T13:26:26;0.93;;;0.93;;
9737;SDS011;4908;47.446;13.900;2024-03-08T13:28:58;1.40;;;1.13;;
9737;SDS011;4908;47.446;13.900;2024-03-08T13:31:25;1.00;;;1.00;;
9737;SDS011;4908;47.446;13.900;2024-03-08T13:33:52;1.65;;;1.10;;
9737;SDS011;4908;47.446;13.900;2024-03-08T13:36:24;1.30;;;1.20;;
9737;SDS011;4908;47.446;13.900;2024-03-08T13:38:54;2.33;;;1.07;;
9737;SDS011;4908;47.446;13.900;2024-03-08T13:41:24;1.23;;;1.17;;
9737;SDS011;4908;47.446;13.900;2024-03-08T13:43:51;1.87;;;1.07;;
9737;SDS011;4908;47.446;13.900;2024-03-08T13:46:18;1.03;;;1.00;;
9737;SDS011;4908;47.446;13.900;2024-03-08T13:48:45;1.17;;;1.10;;
9737;SDS011;4908;47.446;13.900;2024-03-08T13:51:13;1.10;;;1.10;;
9737;SDS011;4908;47.446;13.900;2024-03-08T13:53:44;3.10;;;1.00;;
9737;SDS011;4908;47.446;13.900;2024-03-08T13:56:11;0.90;;;0.90;;
9737;SDS011;4908;47.446;13.900;2024-03-08T13:58:39;1.13;;;1.00;;
9737;SDS011;4908;47.446;13.900;2024-03-08T14:01:06;2.37;;;1.00;;
9737;SDS011;4908;47.446;13.900;2024-03-08T14:03:36;1.43;;;1.37;;
9737;SDS011;4908;47.446;13.900;2024-03-08T14:06:03;1.10;;;1.03;;
9737;SDS011;4908;47.446;13.900;2024-03-08T14:08:32;2.03;;;1.17;;
9737;SDS011;4908;47.446;13.900;2024-03-08T14:11:01;1.30;;;1.23;;
9737;SDS011;4908;47.446;13.900;2024-03-08T14:13:35;1.17;;;1.17;;
9737;SDS011;4908;47.446;13.900;2024-03-08T14:16:06;1.13;;;1.13;;
9737;SDS011;4908;47.446;13.900;2024-03-08T14:18:34;1.10;;;1.10;;
9737;SDS011;4908;47.446;13.900;2024-03-08T14:21:02;1.20;;;1.20;;
9737;SDS011;4908;47.446;13.900;2024-03-08T14:23:29;1.20;;;1.20;;
9737;SDS011;4908;47.446;13.900;2024-03-08T14:25:58;1.10;;;1.10;;
9737;SDS011;4908;47.446;13.900;2024-03-08T14:28:26;1.50;;;1.10;;
9737;SDS011;4908;47.446;13.900;2024-03-08T14:30:53;1.33;;;1.27;;
9737;SDS011;4908;47.446;13.900;2024-03-08T14:33:20;1.10;;;1.10;;
9737;SDS011;4908;47.446;13.900;2024-03-08T14:35:50;1.20;;;1.20;;
9737;SDS011;4908;47.446;13.900;2024-03-08T14:38:17;1.20;;;1.20;;
9737;SDS011;4908;47.446;13.900;2024-03-08T14:40:45;1.47;;;1.20;;
9737;SDS011;4908;47.446;13.900;2024-03-08T14:43:13;2.03;;;1.90;;
9737;SDS011;4908;47.446;13.900;2024-03-08T14:45:43;1.40;;;1.30;;
9737;SDS011;4908;47.446;13.900;2024-03-08T14:48:12;1.13;;;1.13;;
9737;SDS011;4908;47.446;13.900;2024-03-08T14:50:40;1.43;;;1.37;;
9737;SDS011;4908;47.446;13.900;2024-03-08T14:53:09;1.50;;;1.40;;
9737;SDS011;4908;47.446;13.900;2024-03-08T14:55:37;1.10;;;1.10;;
9737;SDS011;4908;47.446;13.900;2024-03-08T14:58:04;1.10;;;1.10;;
9737;SDS011;4908;47.446;13.900;2024-03-08T15:00:32;1.20;;;1.20;;
9737;SDS011;4908;47.446;13.900;2024-03-08T15:03:01;1.00;;;1.00;;
9737;SDS011;4908;47.446;13.900;2024-03-08T15:05:29;1.00;;;1.00;;
9737;SDS011;4908;47.446;13.900;2024-03-08T15:07:57;1.80;;;1.07;;
9737;SDS011;4908;47.446;13.900;2024-03-08T15:10:26;0.93;;;0.93;;